sensor_id;sensor_type;location;lat;lon;timestamp;P1;durP1;ratioP1;P2;durP2;ratioP2
35891;SDS011;21993;42.672;23.296;2022-08-11T00:01:21;8.90;;;5.90;;
35891;SDS011;21993;42.672;23.296;2022-08-11T00:03:54;6.37;;;5.77;;
35891;SDS011;21993;42.672;23.296;2022-08-11T00:06:24;6.07;;;5.47;;
35891;SDS011;21993;42.672;23.296;2022-08-11T00:08:53;6.30;;;5.80;;
35891;SDS011;21993;42.672;23.296;2022-08-11T00:11:20;6.50;;;6.00;;
35891;SDS011;21993;42.672;23.296;2022-08-11T00:13:55;7.37;;;6.00;;
35891;SDS011;21993;42.672;23.296;2022-08-11T00:16:22;7.23;;;6.63;;
35891;SDS011;21993;42.672;23.296;2022-08-11T00:18:52;6.63;;;6.03;;
35891;SDS011;21993;42.672;23.296;2022-08-11T00:21:20;7.80;;;5.97;;
35891;SDS011;21993;42.672;23.296;2022-08-11T00:23:51;6.63;;;6.10;;
35891;SDS011;21993;42.672;23.296;2022-08-11T00:26:19;6.67;;;6.07;;
35891;SDS011;21993;42.672;23.296;2022-08-11T00:28:46;6.90;;;6.20;;
35891;SDS011;21993;42.672;23.296;2022-08-11T00:31:29;7.33;;;6.37;;
35891;SDS011;21993;42.672;23.296;2022-08-11T00:33:56;6.87;;;6.23;;
35891;SDS011;21993;42.672;23.296;2022-08-11T00:36:27;6.90;;;6.20;;
35891;SDS011;21993;42.672;23.296;2022-08-11T00:39:03;6.97;;;6.27;;
35891;SDS011;21993;42.672;23.296;2022-08-11T00:52:16;9.00;;;5.97;;
35891;SDS011;21993;42.672;23.296;2022-08-11T01:00:52;7.27;;;5.60;;
35891;SDS011;21993;42.672;23.296;2022-08-11T01:15:05;8.13;;;6.60;;
35891;SDS011;21993;42.672;23.296;2022-08-11T01:18:16;10.03;;;6.50;;
35891;SDS011;21993;42.672;23.296;2022-08-11T01:21:04;8.07;;;7.00;;
35891;SDS011;21993;42.672;23.296;2022-08-11T01:26:53;7.43;;;6.73;;
35891;SDS011;21993;42.672;23.296;2022-08-11T01:30:06;7.60;;;6.63;;
35891;SDS011;21993;42.672;23.296;2022-08-11T01:35:35;7.00;;;6.30;;
35891;SDS011;21993;42.672;23.296;2022-08-11T01:50:31;8.50;;;6.67;;
35891;SDS011;21993;42.672;23.296;2022-08-11T01:53:20;7.80;;;7.00;;
35891;SDS011;21993;42.672;23.296;2022-08-11T02:04:38;7.87;;;7.00;;
35891;SDS011;21993;42.672;23.296;2022-08-11T02:10:34;8.27;;;7.47;;
35891;SDS011;21993;42.672;23.296;2022-08-11T02:16:04;8.13;;;7.33;;
35891;SDS011;21993;42.672;23.296;2022-08-11T02:18:38;8.07;;;7.27;;
35891;SDS011;21993;42.672;23.296;2022-08-11T02:21:26;8.50;;;7.03;;
35891;SDS011;21993;42.672;23.296;2022-08-11T02:24:23;9.33;;;6.87;;
35891;SDS011;21993;42.672;23.296;2022-08-11T02:27:04;8.60;;;7.57;;
35891;SDS011;21993;42.672;23.296;2022-08-11T02:29:44;8.20;;;6.67;;
35891;SDS011;21993;42.672;23.296;2022-08-11T02:32:36;8.73;;;6.70;;
35891;SDS011;21993;42.672;23.296;2022-08-11T02:35:34;7.60;;;6.90;;
35891;SDS011;21993;42.672;23.296;2022-08-11T02:50:51;8.60;;;7.70;;
35891;SDS011;21993;42.672;23.296;2022-08-11T03:02:25;10.97;;;8.13;;
35891;SDS011;21993;42.672;23.296;2022-08-11T03:05:36;9.57;;;8.67;;
35891;SDS011;21993;42.672;23.296;2022-08-11T03:08:06;9.50;;;8.20;;
35891;SDS011;21993;42.672;23.296;2022-08-11T03:11:10;8.80;;;7.90;;
35891;SDS011;21993;42.672;23.296;2022-08-11T03:20:10;8.80;;;8.00;;
35891;SDS011;21993;42.672;23.296;2022-08-11T03:23:03;8.80;;;8.00;;
35891;SDS011;21993;42.672;23.296;2022-08-11T03:34:43;9.60;;;8.60;;
35891;SDS011;21993;42.672;23.296;2022-08-11T03:40:33;9.53;;;7.83;;
35891;SDS011;21993;42.672;23.296;2022-08-11T03:43:30;8.20;;;7.40;;
35891;SDS011;21993;42.672;23.296;2022-08-11T03:48:58;8.63;;;7.83;;
35891;SDS011;21993;42.672;23.296;2022-08-11T03:52:16;11.43;;;8.50;;
35891;SDS011;21993;42.672;23.296;2022-08-11T04:22:53;9.10;;;6.87;;
35891;SDS011;21993;42.672;23.296;2022-08-11T04:28:31;8.83;;;7.97;;
35891;SDS011;21993;42.672;23.296;2022-08-11T04:33:39;10.80;;;7.97;;
35891;SDS011;21993;42.672;23.296;2022-08-11T04:51:20;9.33;;;7.63;;
35891;SDS011;21993;42.672;23.296;2022-08-11T04:57:03;8.80;;;7.90;;
35891;SDS011;21993;42.672;23.296;2022-08-11T05:03:00;8.77;;;7.57;;
35891;SDS011;21993;42.672;23.296;2022-08-11T05:05:59;12.50;;;8.30;;
35891;SDS011;21993;42.672;23.296;2022-08-11T05:14:26;9.40;;;7.60;;
35891;SDS011;21993;42.672;23.296;2022-08-11T05:17:31;10.33;;;7.37;;
35891;SDS011;21993;42.672;23.296;2022-08-11T05:20:20;10.93;;;7.73;;
35891;SDS011;21993;42.672;23.296;2022-08-11T05:23:07;9.60;;;7.27;;
35891;SDS011;21993;42.672;23.296;2022-08-11T05:25:55;11.07;;;7.77;;
35891;SDS011;21993;42.672;23.296;2022-08-11T05:28:49;8.60;;;7.30;;
35891;SDS011;21993;42.672;23.296;2022-08-11T05:31:37;9.37;;;7.47;;
35891;SDS011;21993;42.672;23.296;2022-08-11T05:34:27;10.87;;;7.70;;
35891;SDS011;21993;42.672;23.296;2022-08-11T05:37:40;8.40;;;7.50;;
35891;SDS011;21993;42.672;23.296;2022-08-11T05:40:26;8.53;;;7.77;;
35891;SDS011;21993;42.672;23.296;2022-08-11T05:43:12;9.83;;;8.33;;
35891;SDS011;21993;42.672;23.296;2022-08-11T05:46:01;11.33;;;7.87;;
35891;SDS011;21993;42.672;23.296;2022-08-11T05:48:47;10.10;;;8.30;;
35891;SDS011;21993;42.672;23.296;2022-08-11T05:51:33;8.40;;;7.70;;
35891;SDS011;21993;42.672;23.296;2022-08-11T05:54:18;9.10;;;7.63;;
35891;SDS011;21993;42.672;23.296;2022-08-11T05:57:03;10.37;;;8.30;;
35891;SDS011;21993;42.672;23.296;2022-08-11T05:59:29;11.03;;;8.87;;
35891;SDS011;21993;42.672;23.296;2022-08-11T06:02:00;10.70;;;7.90;;
35891;SDS011;21993;42.672;23.296;2022-08-11T06:04:27;10.93;;;7.50;;
35891;SDS011;21993;42.672;23.296;2022-08-11T06:07:00;9.93;;;7.30;;
35891;SDS011;21993;42.672;23.296;2022-08-11T06:12:06;11.07;;;8.40;;
35891;SDS011;21993;42.672;23.296;2022-08-11T06:14:41;11.77;;;6.90;;
35891;SDS011;21993;42.672;23.296;2022-08-11T06:17:09;14.13;;;7.13;;
35891;SDS011;21993;42.672;23.296;2022-08-11T06:19:41;9.27;;;7.40;;
35891;SDS011;21993;42.672;23.296;2022-08-11T06:22:11;15.07;;;10.43;;
35891;SDS011;21993;42.672;23.296;2022-08-11T06:24:39;9.73;;;8.10;;
35891;SDS011;21993;42.672;23.296;2022-08-11T06:27:06;7.83;;;7.03;;
35891;SDS011;21993;42.672;23.296;2022-08-11T06:29:33;9.77;;;7.57;;
35891;SDS011;21993;42.672;23.296;2022-08-11T06:32:04;7.47;;;6.63;;
35891;SDS011;21993;42.672;23.296;2022-08-11T06:40:08;7.00;;;6.40;;
35891;SDS011;21993;42.672;23.296;2022-08-11T06:42:57;6.13;;;5.63;;
35891;SDS011;21993;42.672;23.296;2022-08-11T06:48:27;7.30;;;6.50;;
35891;SDS011;21993;42.672;23.296;2022-08-11T06:50:59;6.43;;;5.80;;
35891;SDS011;21993;42.672;23.296;2022-08-11T06:56:13;5.50;;;4.80;;
35891;SDS011;21993;42.672;23.296;2022-08-11T06:58:59;7.33;;;5.63;;
35891;SDS011;21993;42.672;23.296;2022-08-11T07:02:18;8.30;;;5.80;;
35891;SDS011;21993;42.672;23.296;2022-08-11T07:04:47;6.90;;;6.13;;
35891;SDS011;21993;42.672;23.296;2022-08-11T07:13:09;6.43;;;5.80;;
35891;SDS011;21993;42.672;23.296;2022-08-11T07:15:58;5.60;;;4.97;;
35891;SDS011;21993;42.672;23.296;2022-08-11T07:18:25;7.80;;;5.80;;
35891;SDS011;21993;42.672;23.296;2022-08-11T07:21:15;6.67;;;6.07;;
35891;SDS011;21993;42.672;23.296;2022-08-11T07:24:28;7.30;;;5.57;;
35891;SDS011;21993;42.672;23.296;2022-08-11T07:27:17;6.50;;;5.90;;
35891;SDS011;21993;42.672;23.296;2022-08-11T07:30:04;7.03;;;6.33;;
35891;SDS011;21993;42.672;23.296;2022-08-11T07:32:32;6.23;;;5.03;;
35891;SDS011;21993;42.672;23.296;2022-08-11T07:35:10;6.17;;;5.53;;
35891;SDS011;21993;42.672;23.296;2022-08-11T07:37:44;7.90;;;5.50;;
35891;SDS011;21993;42.672;23.296;2022-08-11T07:40:19;6.17;;;5.60;;
35891;SDS011;21993;42.672;23.296;2022-08-11T07:42:47;5.57;;;5.07;;
35891;SDS011;21993;42.672;23.296;2022-08-11T07:45:13;10.17;;;9.13;;
35891;SDS011;21993;42.672;23.296;2022-08-11T07:47:58;6.00;;;5.50;;
35891;SDS011;21993;42.672;23.296;2022-08-11T07:50:44;6.17;;;4.87;;
35891;SDS011;21993;42.672;23.296;2022-08-11T07:53:29;5.60;;;5.10;;
35891;SDS011;21993;42.672;23.296;2022-08-11T07:56:00;7.80;;;5.23;;
35891;SDS011;21993;42.672;23.296;2022-08-11T07:58:26;5.73;;;5.10;;
35891;SDS011;21993;42.672;23.296;2022-08-11T08:01:17;6.70;;;5.67;;
35891;SDS011;21993;42.672;23.296;2022-08-11T08:04:06;6.00;;;5.33;;
35891;SDS011;21993;42.672;23.296;2022-08-11T08:06:51;7.03;;;5.57;;
35891;SDS011;21993;42.672;23.296;2022-08-11T08:09:36;5.50;;;4.93;;
35891;SDS011;21993;42.672;23.296;2022-08-11T08:12:21;9.30;;;5.50;;
35891;SDS011;21993;42.672;23.296;2022-08-11T08:15:07;5.10;;;4.60;;
35891;SDS011;21993;42.672;23.296;2022-08-11T08:17:54;6.27;;;5.13;;
35891;SDS011;21993;42.672;23.296;2022-08-11T08:20:26;7.47;;;5.27;;
35891;SDS011;21993;42.672;23.296;2022-08-11T08:22:55;5.40;;;4.90;;
35891;SDS011;21993;42.672;23.296;2022-08-11T08:25:26;6.83;;;5.40;;
35891;SDS011;21993;42.672;23.296;2022-08-11T08:27:54;5.60;;;5.00;;
35891;SDS011;21993;42.672;23.296;2022-08-11T08:30:23;7.60;;;5.37;;
35891;SDS011;21993;42.672;23.296;2022-08-11T08:33:10;8.20;;;5.20;;
35891;SDS011;21993;42.672;23.296;2022-08-11T08:35:37;6.20;;;5.50;;
35891;SDS011;21993;42.672;23.296;2022-08-11T08:38:05;6.30;;;4.90;;
35891;SDS011;21993;42.672;23.296;2022-08-11T08:40:31;6.27;;;5.67;;
35891;SDS011;21993;42.672;23.296;2022-08-11T08:42:58;6.03;;;5.40;;
35891;SDS011;21993;42.672;23.296;2022-08-11T08:45:28;5.87;;;5.33;;
35891;SDS011;21993;42.672;23.296;2022-08-11T08:48:15;6.57;;;5.33;;
35891;SDS011;21993;42.672;23.296;2022-08-11T08:50:49;5.93;;;5.43;;
35891;SDS011;21993;42.672;23.296;2022-08-11T08:53:38;6.17;;;4.53;;
35891;SDS011;21993;42.672;23.296;2022-08-11T08:56:06;5.63;;;5.13;;
35891;SDS011;21993;42.672;23.296;2022-08-11T08:58:35;5.70;;;5.20;;
35891;SDS011;21993;42.672;23.296;2022-08-11T09:01:02;9.33;;;7.80;;
35891;SDS011;21993;42.672;23.296;2022-08-11T09:03:29;5.43;;;4.93;;
35891;SDS011;21993;42.672;23.296;2022-08-11T09:05:56;6.43;;;5.20;;
35891;SDS011;21993;42.672;23.296;2022-08-11T09:08:22;5.40;;;4.90;;
35891;SDS011;21993;42.672;23.296;2022-08-11T09:10:49;5.90;;;5.30;;
35891;SDS011;21993;42.672;23.296;2022-08-11T09:13:35;4.90;;;4.50;;
35891;SDS011;21993;42.672;23.296;2022-08-11T09:16:02;5.00;;;4.53;;
35891;SDS011;21993;42.672;23.296;2022-08-11T09:18:30;4.87;;;4.47;;
35891;SDS011;21993;42.672;23.296;2022-08-11T09:20:56;7.20;;;4.73;;
35891;SDS011;21993;42.672;23.296;2022-08-11T09:23:22;5.37;;;4.87;;
35891;SDS011;21993;42.672;23.296;2022-08-11T09:26:08;5.23;;;4.73;;
35891;SDS011;21993;42.672;23.296;2022-08-11T09:28:53;4.87;;;4.47;;
35891;SDS011;21993;42.672;23.296;2022-08-11T09:31:20;5.53;;;4.97;;
35891;SDS011;21993;42.672;23.296;2022-08-11T09:33:47;5.90;;;5.23;;
35891;SDS011;21993;42.672;23.296;2022-08-11T09:36:17;9.20;;;6.90;;
35891;SDS011;21993;42.672;23.296;2022-08-11T09:39:03;5.77;;;5.00;;
35891;SDS011;21993;42.672;23.296;2022-08-11T09:41:49;5.23;;;4.60;;
35891;SDS011;21993;42.672;23.296;2022-08-11T09:44:15;5.90;;;4.43;;
35891;SDS011;21993;42.672;23.296;2022-08-11T09:47:00;5.80;;;4.47;;
35891;SDS011;21993;42.672;23.296;2022-08-11T09:49:29;5.50;;;4.50;;
35891;SDS011;21993;42.672;23.296;2022-08-11T09:51:56;4.80;;;4.07;;
35891;SDS011;21993;42.672;23.296;2022-08-11T09:54:22;5.53;;;5.00;;
35891;SDS011;21993;42.672;23.296;2022-08-11T09:56:52;5.17;;;4.67;;
35891;SDS011;21993;42.672;23.296;2022-08-11T09:59:37;5.53;;;5.00;;
35891;SDS011;21993;42.672;23.296;2022-08-11T10:02:04;5.67;;;5.10;;
35891;SDS011;21993;42.672;23.296;2022-08-11T10:04:37;7.83;;;5.20;;
35891;SDS011;21993;42.672;23.296;2022-08-11T10:07:05;5.53;;;4.73;;
35891;SDS011;21993;42.672;23.296;2022-08-11T10:09:38;8.77;;;5.83;;
35891;SDS011;21993;42.672;23.296;2022-08-11T10:12:11;5.30;;;4.80;;
35891;SDS011;21993;42.672;23.296;2022-08-11T10:14:44;5.80;;;5.23;;
35891;SDS011;21993;42.672;23.296;2022-08-11T10:17:32;5.27;;;4.77;;
35891;SDS011;21993;42.672;23.296;2022-08-11T10:20:00;13.27;;;5.80;;
35891;SDS011;21993;42.672;23.296;2022-08-11T10:22:32;5.87;;;5.27;;
35891;SDS011;21993;42.672;23.296;2022-08-11T10:25:18;7.80;;;5.10;;
35891;SDS011;21993;42.672;23.296;2022-08-11T10:28:03;9.43;;;5.60;;
35891;SDS011;21993;42.672;23.296;2022-08-11T10:30:32;7.47;;;5.27;;
35891;SDS011;21993;42.672;23.296;2022-08-11T10:33:16;6.90;;;5.40;;
35891;SDS011;21993;42.672;23.296;2022-08-11T10:36:02;6.03;;;5.43;;
35891;SDS011;21993;42.672;23.296;2022-08-11T10:38:30;5.73;;;4.90;;
35891;SDS011;21993;42.672;23.296;2022-08-11T10:40:55;5.20;;;4.67;;
35891;SDS011;21993;42.672;23.296;2022-08-11T10:43:40;5.67;;;5.00;;
35891;SDS011;21993;42.672;23.296;2022-08-11T10:46:09;6.70;;;5.20;;
35891;SDS011;21993;42.672;23.296;2022-08-11T10:48:55;5.37;;;4.83;;
35891;SDS011;21993;42.672;23.296;2022-08-11T10:51:22;5.53;;;5.03;;
35891;SDS011;21993;42.672;23.296;2022-08-11T10:54:08;5.20;;;4.70;;
35891;SDS011;21993;42.672;23.296;2022-08-11T10:56:52;5.10;;;4.60;;
35891;SDS011;21993;42.672;23.296;2022-08-11T10:59:37;7.33;;;4.90;;
35891;SDS011;21993;42.672;23.296;2022-08-11T11:02:02;5.97;;;4.60;;
35891;SDS011;21993;42.672;23.296;2022-08-11T11:07:22;5.40;;;5.00;;
35891;SDS011;21993;42.672;23.296;2022-08-11T11:10:02;6.77;;;4.50;;
35891;SDS011;21993;42.672;23.296;2022-08-11T11:12:41;4.67;;;4.27;;
35891;SDS011;21993;42.672;23.296;2022-08-11T11:15:28;5.10;;;4.40;;
35891;SDS011;21993;42.672;23.296;2022-08-11T11:18:19;8.07;;;4.93;;
35891;SDS011;21993;42.672;23.296;2022-08-11T11:20:53;4.87;;;4.20;;
35891;SDS011;21993;42.672;23.296;2022-08-11T11:23:26;6.23;;;5.27;;
35891;SDS011;21993;42.672;23.296;2022-08-11T11:25:59;8.60;;;5.10;;
35891;SDS011;21993;42.672;23.296;2022-08-11T11:34:16;4.20;;;3.90;;
35891;SDS011;21993;42.672;23.296;2022-08-11T11:36:48;4.80;;;4.40;;
35891;SDS011;21993;42.672;23.296;2022-08-11T11:39:22;5.53;;;4.60;;
35891;SDS011;21993;42.672;23.296;2022-08-11T11:41:50;5.83;;;4.77;;
35891;SDS011;21993;42.672;23.296;2022-08-11T11:44:19;6.33;;;4.90;;
35891;SDS011;21993;42.672;23.296;2022-08-11T11:46:47;4.73;;;4.23;;
35891;SDS011;21993;42.672;23.296;2022-08-11T11:49:14;6.10;;;4.80;;
35891;SDS011;21993;42.672;23.296;2022-08-11T11:51:43;10.73;;;5.30;;
35891;SDS011;21993;42.672;23.296;2022-08-11T11:54:12;5.17;;;4.67;;
35891;SDS011;21993;42.672;23.296;2022-08-11T11:56:39;7.37;;;5.67;;
35891;SDS011;21993;42.672;23.296;2022-08-11T11:59:06;5.70;;;5.20;;
35891;SDS011;21993;42.672;23.296;2022-08-11T12:01:52;6.27;;;5.67;;
35891;SDS011;21993;42.672;23.296;2022-08-11T12:04:19;6.80;;;5.50;;
35891;SDS011;21993;42.672;23.296;2022-08-11T12:06:45;6.10;;;5.33;;
35891;SDS011;21993;42.672;23.296;2022-08-11T12:09:12;6.80;;;4.90;;
35891;SDS011;21993;42.672;23.296;2022-08-11T12:11:46;6.87;;;5.30;;
35891;SDS011;21993;42.672;23.296;2022-08-11T12:14:30;10.60;;;5.57;;
35891;SDS011;21993;42.672;23.296;2022-08-11T12:16:56;5.70;;;5.10;;
35891;SDS011;21993;42.672;23.296;2022-08-11T12:19:23;5.60;;;5.10;;
35891;SDS011;21993;42.672;23.296;2022-08-11T12:21:53;7.10;;;6.10;;
35891;SDS011;21993;42.672;23.296;2022-08-11T12:24:38;6.00;;;4.67;;
35891;SDS011;21993;42.672;23.296;2022-08-11T12:27:24;5.27;;;4.77;;
35891;SDS011;21993;42.672;23.296;2022-08-11T12:29:56;7.57;;;5.33;;
35891;SDS011;21993;42.672;23.296;2022-08-11T12:32:28;7.00;;;5.17;;
35891;SDS011;21993;42.672;23.296;2022-08-11T12:34:55;8.03;;;4.83;;
35891;SDS011;21993;42.672;23.296;2022-08-11T12:37:34;6.10;;;5.50;;
35891;SDS011;21993;42.672;23.296;2022-08-11T12:40:11;5.70;;;5.20;;
35891;SDS011;21993;42.672;23.296;2022-08-11T12:42:58;9.40;;;7.70;;
35891;SDS011;21993;42.672;23.296;2022-08-11T12:45:45;7.80;;;4.53;;
35891;SDS011;21993;42.672;23.296;2022-08-11T12:48:12;4.90;;;4.50;;
35891;SDS011;21993;42.672;23.296;2022-08-11T12:51:01;4.27;;;3.97;;
35891;SDS011;21993;42.672;23.296;2022-08-11T12:56:39;5.40;;;4.03;;
35891;SDS011;21993;42.672;23.296;2022-08-11T12:59:28;7.43;;;4.73;;
35891;SDS011;21993;42.672;23.296;2022-08-11T13:02:16;6.10;;;4.10;;
35891;SDS011;21993;42.672;23.296;2022-08-11T13:05:04;4.10;;;3.80;;
35891;SDS011;21993;42.672;23.296;2022-08-11T13:07:32;4.90;;;4.20;;
35891;SDS011;21993;42.672;23.296;2022-08-11T13:09:59;4.90;;;4.07;;
35891;SDS011;21993;42.672;23.296;2022-08-11T13:12:27;7.43;;;4.27;;
35891;SDS011;21993;42.672;23.296;2022-08-11T13:17:42;4.70;;;4.30;;
35891;SDS011;21993;42.672;23.296;2022-08-11T13:20:09;4.93;;;4.40;;
35891;SDS011;21993;42.672;23.296;2022-08-11T13:22:38;5.40;;;4.53;;
35891;SDS011;21993;42.672;23.296;2022-08-11T13:25:09;6.80;;;4.27;;
35891;SDS011;21993;42.672;23.296;2022-08-11T13:27:37;4.50;;;3.97;;
35891;SDS011;21993;42.672;23.296;2022-08-11T13:30:04;5.30;;;4.43;;
35891;SDS011;21993;42.672;23.296;2022-08-11T13:32:48;5.67;;;3.90;;
35891;SDS011;21993;42.672;23.296;2022-08-11T13:35:15;4.80;;;4.30;;
35891;SDS011;21993;42.672;23.296;2022-08-11T13:37:43;4.60;;;4.20;;
35891;SDS011;21993;42.672;23.296;2022-08-11T13:40:11;4.93;;;4.53;;
35891;SDS011;21993;42.672;23.296;2022-08-11T13:42:40;4.40;;;3.93;;
35891;SDS011;21993;42.672;23.296;2022-08-11T13:45:08;4.77;;;4.07;;
35891;SDS011;21993;42.672;23.296;2022-08-11T13:47:34;4.50;;;3.93;;
35891;SDS011;21993;42.672;23.296;2022-08-11T13:50:00;3.70;;;3.40;;
35891;SDS011;21993;42.672;23.296;2022-08-11T13:52:26;4.40;;;4.00;;
35891;SDS011;21993;42.672;23.296;2022-08-11T13:54:53;4.63;;;4.23;;
35891;SDS011;21993;42.672;23.296;2022-08-11T13:57:19;4.73;;;3.73;;
35891;SDS011;21993;42.672;23.296;2022-08-11T13:59:46;4.27;;;3.97;;
35891;SDS011;21993;42.672;23.296;2022-08-11T14:02:19;3.70;;;3.40;;
35891;SDS011;21993;42.672;23.296;2022-08-11T14:04:53;4.63;;;3.77;;
35891;SDS011;21993;42.672;23.296;2022-08-11T14:07:20;3.97;;;3.67;;
35891;SDS011;21993;42.672;23.296;2022-08-11T14:09:55;4.40;;;4.00;;
35891;SDS011;21993;42.672;23.296;2022-08-11T14:12:27;4.40;;;3.70;;
35891;SDS011;21993;42.672;23.296;2022-08-11T14:15:24;4.73;;;4.00;;
35891;SDS011;21993;42.672;23.296;2022-08-11T14:18:05;4.47;;;4.07;;
35891;SDS011;21993;42.672;23.296;2022-08-11T14:20:33;3.73;;;3.43;;
35891;SDS011;21993;42.672;23.296;2022-08-11T14:23:24;3.47;;;3.27;;
35891;SDS011;21993;42.672;23.296;2022-08-11T14:26:03;4.13;;;3.80;;
35891;SDS011;21993;42.672;23.296;2022-08-11T14:28:54;4.03;;;3.63;;
35891;SDS011;21993;42.672;23.296;2022-08-11T14:31:33;4.97;;;3.50;;
35891;SDS011;21993;42.672;23.296;2022-08-11T14:34:02;4.10;;;3.80;;
35891;SDS011;21993;42.672;23.296;2022-08-11T14:36:33;6.23;;;4.40;;
35891;SDS011;21993;42.672;23.296;2022-08-11T14:39:01;4.33;;;3.93;;
35891;SDS011;21993;42.672;23.296;2022-08-11T14:41:29;5.23;;;4.40;;
35891;SDS011;21993;42.672;23.296;2022-08-11T14:44:14;4.87;;;4.47;;
35891;SDS011;21993;42.672;23.296;2022-08-11T14:46:59;4.73;;;4.30;;
35891;SDS011;21993;42.672;23.296;2022-08-11T14:49:30;4.90;;;4.50;;
35891;SDS011;21993;42.672;23.296;2022-08-11T14:52:02;4.80;;;4.40;;
35891;SDS011;21993;42.672;23.296;2022-08-11T14:54:31;11.50;;;5.17;;
35891;SDS011;21993;42.672;23.296;2022-08-11T14:57:16;5.03;;;4.63;;
35891;SDS011;21993;42.672;23.296;2022-08-11T14:59:44;5.57;;;5.00;;
35891;SDS011;21993;42.672;23.296;2022-08-11T15:02:12;5.87;;;4.87;;
35891;SDS011;21993;42.672;23.296;2022-08-11T15:04:58;4.43;;;4.03;;
35891;SDS011;21993;42.672;23.296;2022-08-11T15:07:25;4.93;;;4.53;;
35891;SDS011;21993;42.672;23.296;2022-08-11T15:09:55;4.97;;;4.57;;
35891;SDS011;21993;42.672;23.296;2022-08-11T15:12:26;4.90;;;4.47;;
35891;SDS011;21993;42.672;23.296;2022-08-11T15:14:54;5.00;;;4.50;;
35891;SDS011;21993;42.672;23.296;2022-08-11T15:17:38;5.70;;;4.70;;
35891;SDS011;21993;42.672;23.296;2022-08-11T15:20:07;4.90;;;4.47;;
35891;SDS011;21993;42.672;23.296;2022-08-11T15:22:54;4.90;;;4.50;;
35891;SDS011;21993;42.672;23.296;2022-08-11T15:25:39;5.13;;;4.63;;
35891;SDS011;21993;42.672;23.296;2022-08-11T15:28:09;6.93;;;4.90;;
35891;SDS011;21993;42.672;23.296;2022-08-11T15:30:57;5.27;;;4.77;;
35891;SDS011;21993;42.672;23.296;2022-08-11T15:33:43;5.23;;;4.67;;
35891;SDS011;21993;42.672;23.296;2022-08-11T15:36:30;4.53;;;4.23;;
35891;SDS011;21993;42.672;23.296;2022-08-11T15:39:36;4.83;;;4.43;;
35891;SDS011;21993;42.672;23.296;2022-08-11T15:42:25;4.40;;;4.00;;
35891;SDS011;21993;42.672;23.296;2022-08-11T15:45:11;5.90;;;4.40;;
35891;SDS011;21993;42.672;23.296;2022-08-11T15:48:06;4.47;;;4.07;;
35891;SDS011;21993;42.672;23.296;2022-08-11T15:50:35;4.90;;;4.40;;
35891;SDS011;21993;42.672;23.296;2022-08-11T15:53:08;4.60;;;4.20;;
35891;SDS011;21993;42.672;23.296;2022-08-11T15:55:40;4.83;;;4.33;;
35891;SDS011;21993;42.672;23.296;2022-08-11T15:58:07;4.33;;;3.97;;
35891;SDS011;21993;42.672;23.296;2022-08-11T16:00:53;4.50;;;4.10;;
35891;SDS011;21993;42.672;23.296;2022-08-11T16:03:44;4.30;;;3.90;;
35891;SDS011;21993;42.672;23.296;2022-08-11T16:06:33;4.20;;;3.80;;
35891;SDS011;21993;42.672;23.296;2022-08-11T16:09:02;5.87;;;4.43;;
35891;SDS011;21993;42.672;23.296;2022-08-11T16:11:31;6.27;;;4.53;;
35891;SDS011;21993;42.672;23.296;2022-08-11T16:13:59;5.93;;;4.67;;
35891;SDS011;21993;42.672;23.296;2022-08-11T16:16:48;5.57;;;5.07;;
35891;SDS011;21993;42.672;23.296;2022-08-11T16:19:17;5.40;;;4.50;;
35891;SDS011;21993;42.672;23.296;2022-08-11T16:21:44;9.13;;;4.93;;
35891;SDS011;21993;42.672;23.296;2022-08-11T16:24:14;6.17;;;4.47;;
35891;SDS011;21993;42.672;23.296;2022-08-11T16:26:43;5.27;;;4.60;;
35891;SDS011;21993;42.672;23.296;2022-08-11T16:29:09;9.40;;;5.70;;
35891;SDS011;21993;42.672;23.296;2022-08-11T16:31:36;7.93;;;4.87;;
35891;SDS011;21993;42.672;23.296;2022-08-11T16:34:03;10.03;;;5.30;;
35891;SDS011;21993;42.672;23.296;2022-08-11T16:36:51;6.97;;;4.80;;
35891;SDS011;21993;42.672;23.296;2022-08-11T16:39:36;10.33;;;5.60;;
35891;SDS011;21993;42.672;23.296;2022-08-11T16:42:03;4.43;;;4.03;;
35891;SDS011;21993;42.672;23.296;2022-08-11T16:44:48;6.83;;;4.57;;
35891;SDS011;21993;42.672;23.296;2022-08-11T16:47:35;5.33;;;4.83;;
35891;SDS011;21993;42.672;23.296;2022-08-11T16:50:01;5.60;;;4.60;;
35891;SDS011;21993;42.672;23.296;2022-08-11T16:52:27;4.23;;;3.87;;
35891;SDS011;21993;42.672;23.296;2022-08-11T16:54:53;4.33;;;3.93;;
35891;SDS011;21993;42.672;23.296;2022-08-11T16:57:25;4.40;;;4.00;;
35891;SDS011;21993;42.672;23.296;2022-08-11T17:00:10;5.07;;;4.30;;
35891;SDS011;21993;42.672;23.296;2022-08-11T17:02:40;4.90;;;4.37;;
35891;SDS011;21993;42.672;23.296;2022-08-11T17:05:27;4.83;;;4.30;;
35891;SDS011;21993;42.672;23.296;2022-08-11T17:08:33;5.00;;;4.00;;
35891;SDS011;21993;42.672;23.296;2022-08-11T17:11:21;4.83;;;4.30;;
35891;SDS011;21993;42.672;23.296;2022-08-11T17:14:11;4.57;;;4.17;;
35891;SDS011;21993;42.672;23.296;2022-08-11T17:16:40;4.63;;;4.20;;
35891;SDS011;21993;42.672;23.296;2022-08-11T17:19:27;4.77;;;4.37;;
35891;SDS011;21993;42.672;23.296;2022-08-11T17:21:57;4.47;;;4.07;;
35891;SDS011;21993;42.672;23.296;2022-08-11T17:24:43;8.70;;;7.90;;
35891;SDS011;21993;42.672;23.296;2022-08-11T17:27:11;4.67;;;4.27;;
35891;SDS011;21993;42.672;23.296;2022-08-11T17:29:51;4.60;;;4.20;;
35891;SDS011;21993;42.672;23.296;2022-08-11T17:35:18;5.93;;;4.37;;
35891;SDS011;21993;42.672;23.296;2022-08-11T17:40:26;5.33;;;4.30;;
35891;SDS011;21993;42.672;23.296;2022-08-11T17:42:53;4.90;;;4.50;;
35891;SDS011;21993;42.672;23.296;2022-08-11T17:45:39;5.40;;;4.90;;
35891;SDS011;21993;42.672;23.296;2022-08-11T17:48:27;5.67;;;5.13;;
35891;SDS011;21993;42.672;23.296;2022-08-11T17:53:30;5.00;;;4.40;;
35891;SDS011;21993;42.672;23.296;2022-08-11T17:56:20;7.10;;;5.20;;
35891;SDS011;21993;42.672;23.296;2022-08-11T17:59:06;5.33;;;4.80;;
35891;SDS011;21993;42.672;23.296;2022-08-11T18:01:51;7.43;;;4.27;;
35891;SDS011;21993;42.672;23.296;2022-08-11T18:04:20;4.50;;;4.20;;
35891;SDS011;21993;42.672;23.296;2022-08-11T18:06:46;7.13;;;4.53;;
35891;SDS011;21993;42.672;23.296;2022-08-11T18:09:16;16.13;;;12.77;;
35891;SDS011;21993;42.672;23.296;2022-08-11T18:12:03;9.20;;;5.77;;
35891;SDS011;21993;42.672;23.296;2022-08-11T18:14:50;6.53;;;5.40;;
35891;SDS011;21993;42.672;23.296;2022-08-11T18:17:37;5.50;;;4.67;;
35891;SDS011;21993;42.672;23.296;2022-08-11T18:20:22;7.83;;;5.20;;
35891;SDS011;21993;42.672;23.296;2022-08-11T18:23:09;6.63;;;4.77;;
35891;SDS011;21993;42.672;23.296;2022-08-11T18:26:03;5.50;;;5.00;;
35891;SDS011;21993;42.672;23.296;2022-08-11T18:28:50;6.53;;;5.07;;
35891;SDS011;21993;42.672;23.296;2022-08-11T18:31:41;9.73;;;5.23;;
35891;SDS011;21993;42.672;23.296;2022-08-11T18:34:31;4.87;;;4.37;;
35891;SDS011;21993;42.672;23.296;2022-08-11T18:37:19;4.87;;;4.47;;
35891;SDS011;21993;42.672;23.296;2022-08-11T18:40:30;6.27;;;5.03;;
35891;SDS011;21993;42.672;23.296;2022-08-11T18:43:14;6.43;;;5.40;;
35891;SDS011;21993;42.672;23.296;2022-08-11T18:46:03;9.77;;;8.77;;
35891;SDS011;21993;42.672;23.296;2022-08-11T18:48:51;7.90;;;7.20;;
35891;SDS011;21993;42.672;23.296;2022-08-11T18:51:37;5.83;;;5.20;;
35891;SDS011;21993;42.672;23.296;2022-08-11T18:54:23;7.63;;;6.90;;
35891;SDS011;21993;42.672;23.296;2022-08-11T18:57:08;7.80;;;5.73;;
35891;SDS011;21993;42.672;23.296;2022-08-11T18:59:56;6.53;;;5.60;;
35891;SDS011;21993;42.672;23.296;2022-08-11T19:02:44;7.47;;;6.70;;